| Time | Avg. Air Temp | Dew Point | Avg. Rel Humidity | Avg. 2 Min Wind Speed | Max Gust Velocity | MGV Time | MGV Direction | Avg. Spot Wind Velocity |
|---|---|---|---|---|---|---|---|---|
| 2026-05-09 05:15:00 | -2° C | -2° C | 100% | 17 km/h | 21 km/h | 05:12:00 | NW | 19 km/h |
| 04:15:00 | -1° C | -1° C | 100% | 13 km/h | 14 km/h | 04:14:00 | NW | 13 km/h |
| 03:15:00 | -1° C | -1° C | 100% | 13 km/h | 18 km/h | 03:13:00 | NW | 13 km/h |
| 02:15:00 | -0° C | -0° C | 100% | 14 km/h | 16 km/h | 02:14:00 | NW | 13 km/h |
| 01:15:00 | -0° C | -1° C | 98% | 16 km/h | 20 km/h | 01:15:00 | 17 km/h | |
| 00:15:00 | 0° C | 0° C | 99% | 9 km/h | 13 km/h | 00:11:00 | W | 10 km/h |
| 23:15:00 | 0° C | -1° C | 92% | 15 km/h | 22 km/h | 23:12:00 | W | 18 km/h |
| 22:15:00 | 1° C | -0° C | 93% | 19 km/h | 22 km/h | 22:12:00 | W | 20 km/h |
| 21:15:00 | 1° C | 1° C | 96% | 9 km/h | 11 km/h | 21:11:00 | NW | 9 km/h |
| 20:15:00 | 1° C | 1° C | 100% | 8 km/h | 13 km/h | 20:12:00 | NW | 9 km/h |
| 19:15:00 | 2° C | 1° C | 96% | 15 km/h | 18 km/h | 19:15:00 | W | 14 km/h |
| 18:15:00 | 2° C | 2° C | 97% | 9 km/h | 12 km/h | 18:14:00 | SW | 9 km/h |
| 17:15:00 | 2° C | 2° C | 94% | 15 km/h | 17 km/h | 17:14:00 | S | 16 km/h |
| 16:15:00 | 2° C | 1° C | 90% | 11 km/h | 22 km/h | 16:11:00 | SE | 12 km/h |
| 15:15:00 | 3° C | 0° C | 83% | 12 km/h | 17 km/h | 15:14:00 | SW | 11 km/h |
| 14:15:00 | 4° C | -2° C | 66% | 15 km/h | 24 km/h | 14:11:00 | S | 14 km/h |
| 13:15:00 | 5° C | -2° C | 61% | 11 km/h | 16 km/h | 13:13:00 | SE | 13 km/h |
| 12:15:00 | 4° C | -1° C | 67% | 14 km/h | 17 km/h | 12:14:00 | SW | 12 km/h |
| 11:15:00 | 6° C | -5° C | 49% | 12 km/h | 14 km/h | 11:14:00 | S | 11 km/h |
| 10:15:00 | 6° C | -3° C | 55% | 13 km/h | 15 km/h | 10:13:00 | SE | 12 km/h |
| 09:15:00 | 6° C | -6° C | 42% | 12 km/h | 15 km/h | 09:13:00 | S | 12 km/h |
| 08:15:00 | 5° C | -7° C | 41% | 12 km/h | 15 km/h | 08:11:00 | S | 12 km/h |
| 07:15:00 | 5° C | -7° C | 44% | 17 km/h | 18 km/h | 07:15:00 | S | 17 km/h |
| 06:15:00 | 5° C | -7° C | 43% | 17 km/h | 19 km/h | 06:15:00 | SW | 16 km/h |
Subpeak Weather
| Time | Avg. Air Temp | Dew Point | Avg. Rel Humidity | Avg. 2 Min Wind Speed | Max Gust Velocity | MGV Time | MGV Direction | Avg. Spot Wind Velocity |
|---|---|---|---|---|---|---|---|---|
| 2026-05-09 05:15:00 | -2° C | -2° C | 100% | 17 km/h | 21 km/h | 05:12:00 | NW | 19 km/h |
| 05:10:00 | -2° C | -2° C | 100% | 19 km/h | 22 km/h | 05:08:00 | NW | 19 km/h |
| 05:05:00 | -2° C | -2° C | 100% | 19 km/h | 20 km/h | 05:01:00 | NW | 18 km/h |
| 05:00:00 | -1° C | -2° C | 100% | 17 km/h | 20 km/h | 04:57:00 | NW | 18 km/h |
| 04:55:00 | -1° C | -1° C | 100% | 16 km/h | 19 km/h | 04:53:00 | NW | 17 km/h |
| 04:50:00 | -1° C | -1° C | 100% | 18 km/h | 20 km/h | 04:49:00 | NW | 18 km/h |
| 04:45:00 | -1° C | -1° C | 100% | 15 km/h | 18 km/h | 04:43:00 | NW | 16 km/h |
| 04:40:00 | -1° C | -1° C | 100% | 9 km/h | 18 km/h | 04:37:00 | NW | 12 km/h |
| 04:35:00 | -1° C | -1° C | 100% | 11 km/h | 16 km/h | 04:34:00 | NW | 11 km/h |
| 04:30:00 | -0° C | -1° C | 100% | 8 km/h | 18 km/h | 04:27:00 | NE | 12 km/h |
| 04:25:00 | -1° C | -1° C | 100% | 17 km/h | 18 km/h | 04:25:00 | NW | 16 km/h |
| 04:20:00 | -1° C | -1° C | 100% | 15 km/h | 16 km/h | 04:20:00 | NW | 14 km/h |
| 04:15:00 | -1° C | -1° C | 100% | 13 km/h | 14 km/h | 04:14:00 | NW | 13 km/h |




